Time;durP1;ratioP1;P1;durP2;ratioP2;P2;SDS_P1;SDS_P2;PMS_P1;PMS_P2;Temp;Humidity;BMP_temperature;BMP_pressure;BME280_temperature;BME280_humidity;BME280_pressure;Samples;Min_cycle;Max_cycle;Signal;HPM_P1;HPM_P2
2021/12/02 00:01:29;;;;;;;;;0.00;0.00;;;;;7.09;71.88;99998.25;5076805;27;45472;-85
2021/12/02 00:03:55;;;;;;;;;2.00;0.00;;;;;7.10;72.18;99995.66;5083747;28;45390;-87
2021/12/02 00:06:21;;;;;;;;;0.50;0.50;;;;;6.54;72.11;99903.63;5081221;27;45404;-85
2021/12/02 00:08:50;;;;;;;;;0.00;0.00;;;;;6.50;71.92;99899.25;5085846;27;45486;-86
2021/12/02 00:11:17;;;;;;;;;0.00;0.00;;;;;7.05;71.93;99997.31;5091623;28;45547;-86
2021/12/02 00:21:17;;;;;;;;;0.00;0.00;;;;;6.41;72.29;99920.69;5082987;27;45437;-85
2021/12/02 00:24:05;;;;;;;;;0.00;0.00;;;;;6.65;72.22;99982.19;5082168;27;45320;-85
2021/12/02 00:26:36;;;;;;;;;0.33;0.00;;;;;6.79;72.18;100028.06;5061963;28;45534;-85
2021/12/02 00:29:04;;;;;;;;;0.00;0.00;;;;;6.49;72.72;99988.88;5062336;28;45355;-87
2021/12/02 00:31:34;;;;;;;;;0.00;0.00;;;;;6.46;73.18;99994.88;5046500;27;45324;-85
2021/12/02 00:34:02;;;;;;;;;0.00;0.00;;;;;6.72;73.21;100028.00;5102822;27;45696;-86
2021/12/02 00:36:30;;;;;;;;;3.00;0.00;;;;;6.19;72.97;99936.78;5103462;27;45477;-86
2021/12/02 00:38:58;;;;;;;;;0.00;0.00;;;;;6.54;72.90;99997.59;5104463;27;45220;-86
2021/12/02 00:41:27;;;;;;;;;0.00;0.00;;;;;6.59;73.12;100013.16;5105329;27;45365;-86
2021/12/02 00:43:55;;;;;;;;;0.00;0.00;;;;;6.54;73.22;100007.06;5103205;27;45682;-85
2021/12/02 00:46:23;;;;;;;;;0.00;0.00;;;;;6.02;73.70;99930.47;5103297;27;45435;-86
2021/12/02 00:48:49;;;;;;;;;0.00;0.00;;;;;6.22;73.44;99987.69;5103587;27;45405;-87
2021/12/02 00:51:16;;;;;;;;;0.00;0.00;;;;;6.56;74.03;100046.75;5087552;27;45374;-86
2021/12/02 00:53:45;;;;;;;;;0.00;0.00;;;;;6.39;74.10;99993.06;5087130;27;48047;-86
2021/12/02 00:56:14;;;;;;;;;1.00;1.00;;;;;6.52;74.23;100019.13;5107390;27;45372;-86
2021/12/02 00:58:40;;;;;;;;;0.00;0.00;;;;;6.15;73.66;99942.75;5067747;28;45362;-87
2021/12/02 01:01:07;;;;;;;;;0.00;0.00;;;;;6.31;73.74;99980.03;5085091;28;45388;-87
2021/12/02 01:03:35;;;;;;;;;1.00;0.00;;;;;6.64;73.94;100039.09;5083745;28;47197;-86
2021/12/02 01:06:06;;;;;;;;;0.00;0.00;;;;;6.66;73.99;100040.84;5066090;28;45310;-86
2021/12/02 01:08:33;;;;;;;;;3.00;0.00;;;;;6.59;73.90;100042.47;5084770;28;45418;-86
2021/12/02 01:11:00;;;;;;;;;0.00;0.00;;;;;6.39;73.63;100011.16;5082957;28;45399;-86
2021/12/02 01:13:26;;;;;;;;;0.00;0.00;;;;;6.37;73.77;100027.50;5082325;28;45475;-85
2021/12/02 01:15:52;;;;;;;;;2.00;0.00;;;;;6.04;74.00;99972.75;5082093;28;45244;-85
2021/12/02 01:18:18;;;;;;;;;0.00;0.00;;;;;6.50;74.60;100051.81;5063693;28;45548;-85
2021/12/02 01:20:47;;;;;;;;;0.00;0.00;;;;;6.10;74.84;100001.28;5082207;28;45375;-86
2021/12/02 01:23:14;;;;;;;;;0.00;0.00;;;;;6.23;74.74;100012.66;5081996;28;45411;-85
2021/12/02 01:25:40;;;;;;;;;0.00;0.00;;;;;6.48;74.64;100044.03;5082054;28;45182;-85
2021/12/02 01:28:07;;;;;;;;;0.00;0.00;;;;;6.51;74.29;100054.44;5081879;28;45300;-86
2021/12/02 01:30:33;;;;;;;;;0.00;0.00;;;;;6.51;75.07;100064.78;5082935;28;45495;-85
2021/12/02 01:33:07;;;;;;;;;0.00;0.00;;;;;6.37;74.71;100032.69;5084136;28;47138;-84
2021/12/02 01:35:35;;;;;;;;;0.00;0.00;;;;;5.90;74.74;99968.22;5089343;28;45433;-85
2021/12/02 01:38:01;;;;;;;;;1.00;1.00;;;;;6.00;75.09;99983.88;5083099;28;45502;-85
2021/12/02 01:40:27;;;;;;;;;0.25;0.00;;;;;5.87;74.93;99983.66;5067113;28;45487;-85
2021/12/02 01:42:56;;;;;;;;;0.00;0.00;;;;;6.19;75.08;100041.91;5086345;28;45322;-85
2021/12/02 01:45:28;;;;;;;;;0.00;0.00;;;;;6.19;75.21;100055.69;5087660;28;45821;-86
2021/12/02 01:47:55;;;;;;;;;1.00;1.00;;;;;6.33;75.38;100086.06;5068201;28;45394;-85
2021/12/02 01:50:23;;;;;;;;;0.00;0.00;;;;;5.96;75.54;100024.28;5086721;28;45497;-85
2021/12/02 01:52:57;;;;;;;;;0.00;0.00;;;;;6.31;75.31;100086.03;5081415;28;47509;-84
2021/12/02 01:55:24;;;;;;;;;0.00;0.00;;;;;5.81;75.61;100005.09;5084239;28;44753;-85
2021/12/02 01:58:01;;;;;;;;;0.00;0.00;;;;;6.32;75.15;100098.13;5070257;28;45272;-86
2021/12/02 02:00:46;;;;;;;;;0.00;0.00;;;;;6.33;75.76;100098.97;5085420;28;45503;-85
2021/12/02 02:03:15;;;;;;;;;0.00;0.00;;;;;6.26;75.32;100091.97;5084929;28;45956;-85
2021/12/02 02:05:41;;;;;;;;;1.00;0.00;;;;;6.12;75.64;100076.25;5066839;28;45885;-85
2021/12/02 02:08:16;;;;;;;;;0.50;0.50;;;;;6.12;75.23;100079.69;5067174;28;45482;-85
2021/12/02 02:10:42;;;;;;;;;1.00;1.00;;;;;5.97;75.62;100062.19;5093606;28;45501;-85
2021/12/02 02:13:10;;;;;;;;;0.00;0.00;;;;;6.29;75.61;100126.50;5103213;28;45289;-84
2021/12/02 02:15:37;;;;;;;;;0.00;0.00;;;;;6.31;75.54;100126.53;5095574;28;45358;-84
2021/12/02 02:21:02;;;;;;;;;1.00;0.00;;;;;6.25;75.71;100134.19;5085409;28;45352;-84
2021/12/02 02:23:30;;;;;;;;;0.00;0.00;;;;;6.02;75.66;100103.59;5084492;28;45361;-84
2021/12/02 02:25:57;;;;;;;;;0.00;0.00;;;;;6.12;75.83;100122.78;5065476;28;45404;-85
2021/12/02 02:28:23;;;;;;;;;0.00;0.00;;;;;6.06;75.78;100110.59;5086815;28;45338;-85
2021/12/02 02:30:48;;;;;;;;;0.00;0.00;;;;;5.73;75.55;100078.16;5072045;28;45259;-85
2021/12/02 02:33:16;;;;;;;;;1.00;1.00;;;;;6.19;75.86;100150.47;5103376;27;48077;-85
2021/12/02 02:35:43;;;;;;;;;0.00;0.00;;;;;6.19;76.09;100153.91;5102129;27;44723;-84
2021/12/02 02:38:09;;;;;;;;;0.00;0.00;;;;;6.10;75.58;100142.53;5119126;27;45293;-85
2021/12/02 02:40:36;;;;;;;;;0.75;0.00;;;;;6.17;76.01;100157.31;5107421;27;45405;-85
2021/12/02 02:43:07;;;;;;;;;0.00;0.00;;;;;6.20;75.84;100165.13;5105143;27;46055;-86
2021/12/02 02:45:34;;;;;;;;;0.00;0.00;;;;;6.19;75.89;100153.91;5086242;27;45425;-85
2021/12/02 02:47:59;;;;;;;;;0.00;0.00;;;;;6.23;75.88;100164.28;5086347;27;45464;-85
2021/12/02 02:50:25;;;;;;;;;1.00;0.75;;;;;5.82;75.84;100105.00;5104124;27;45440;-86
2021/12/02 02:53:22;;;;;;;;;2.25;1.50;;;;;6.09;75.70;100149.41;5105806;27;46761;-85
2021/12/02 02:56:02;;;;;;;;;0.00;0.00;;;;;6.20;75.87;100172.88;5104965;27;45426;-86
2021/12/02 03:04:21;;;;;;;;;0.00;0.00;;;;;6.07;75.14;100153.69;5086048;28;45448;-86
2021/12/02 03:09:39;;;;;;;;;0.00;0.00;;;;;6.15;74.66;100177.06;5102048;28;44680;-84
2021/12/02 03:12:23;;;;;;;;;0.00;0.00;;;;;6.00;74.91;100159.56;5076565;28;45324;-85
2021/12/02 03:17:28;;;;;;;;;0.00;0.00;;;;;6.18;74.59;100175.44;5088803;28;45498;-85
2021/12/02 03:19:54;;;;;;;;;0.00;0.00;;;;;5.77;73.99;100122.13;5087166;28;45217;-85
2021/12/02 03:22:19;;;;;;;;;0.25;0.00;;;;;6.17;73.85;100176.28;5067880;28;45511;-85
2021/12/02 03:24:45;;;;;;;;;0.00;0.00;;;;;5.98;73.25;100162.13;5068549;28;47301;-86
2021/12/02 03:27:11;;;;;;;;;0.00;0.00;;;;;6.30;73.19;100215.25;5070137;28;45370;-85
2021/12/02 03:29:37;;;;;;;;;0.00;0.00;;;;;6.03;73.26;100188.91;5087342;28;45237;-85
2021/12/02 03:32:03;;;;;;;;;0.00;0.00;;;;;6.12;72.65;100205.47;5070169;28;45334;-86
2021/12/02 03:34:28;;;;;;;;;0.00;0.00;;;;;6.01;72.16;100174.22;5085463;28;45521;-85
2021/12/02 03:36:54;;;;;;;;;0.00;0.00;;;;;5.86;72.68;100157.59;5065652;28;45453;-86
2021/12/02 03:39:20;;;;;;;;;0.00;0.00;;;;;6.05;72.24;100195.03;5084353;28;45481;-85
2021/12/02 03:41:46;;;;;;;;;0.00;0.00;;;;;5.32;72.14;100057.63;5085327;28;45390;-84
2021/12/02 03:44:12;;;;;;;;;1.00;1.00;;;;;5.38;71.91;100072.34;5066830;28;47200;-85
2021/12/02 03:46:39;;;;;;;;;0.00;0.00;;;;;6.20;72.22;100216.81;5065335;28;45362;-85
2021/12/02 03:49:05;;;;;;;;;0.00;0.00;;;;;5.65;71.85;100140.84;5065344;28;45371;-85
2021/12/02 03:51:31;;;;;;;;;3.00;0.00;;;;;5.82;71.57;100186.81;5065903;28;45398;-85
2021/12/02 03:53:57;;;;;;;;;0.00;0.00;;;;;5.36;71.16;100130.81;5065006;28;47906;-85
2021/12/02 03:56:23;;;;;;;;;0.00;0.00;;;;;5.90;71.58;100244.66;5083374;28;45376;-84
2021/12/02 03:58:50;;;;;;;;;0.00;0.00;;;;;5.67;71.25;100198.56;5083973;28;45398;-85
2021/12/02 04:01:16;;;;;;;;;0.00;0.00;;;;;5.85;71.41;100235.91;5086968;28;45354;-85
2021/12/02 04:03:42;;;;;;;;;0.00;0.00;;;;;5.64;71.37;100203.66;5066752;28;47169;-84
2021/12/02 04:06:08;;;;;;;;;0.00;0.00;;;;;5.66;70.81;100214.03;5064592;28;46059;-85
2021/12/02 04:08:48;;;;;;;;;0.00;0.00;;;;;5.74;71.34;100232.25;5061615;28;45517;-85
2021/12/02 04:11:36;;;;;;;;;1.00;1.00;;;;;5.61;70.94;100203.63;5063924;28;45482;-85
2021/12/02 04:14:20;;;;;;;;;0.00;0.00;;;;;5.70;70.64;100231.34;5078486;28;45562;-85
2021/12/02 04:16:53;;;;;;;;;0.00;0.00;;;;;5.31;70.27;100174.63;5081937;28;45524;-85
2021/12/02 04:19:20;;;;;;;;;0.00;0.00;;;;;5.58;69.86;100226.78;5081616;28;45770;-85
2021/12/02 04:21:45;;;;;;;;;0.00;0.00;;;;;5.13;68.91;100174.19;5082970;28;45492;-85
2021/12/02 04:24:11;;;;;;;;;0.00;0.00;;;;;5.49;69.02;100240.38;5083475;28;45375;-85
2021/12/02 04:26:37;;;;;;;;;0.00;0.00;;;;;5.32;67.51;100227.09;5107789;27;44936;-85
2021/12/02 04:29:03;;;;;;;;;0.00;0.00;;;;;5.33;68.15;100255.53;5085791;28;45346;-85
2021/12/02 04:31:28;;;;;;;;;0.00;0.00;;;;;4.93;68.07;100187.50;5087447;27;45490;-86
2021/12/02 04:33:53;;;;;;;;;0.00;0.00;;;;;4.96;68.83;100207.38;5110696;27;45291;-85
2021/12/02 04:36:19;;;;;;;;;0.00;0.00;;;;;4.47;68.71;100141.75;5107373;27;45349;-86
2021/12/02 04:38:44;;;;;;;;;0.00;0.00;;;;;4.98;68.88;100228.91;5087799;27;45373;-86
2021/12/02 04:41:10;;;;;;;;;1.00;0.00;;;;;5.14;68.59;100276.56;5105629;27;45353;-85
2021/12/02 04:43:35;;;;;;;;;0.00;0.00;;;;;4.58;68.55;100196.19;5105196;27;46387;-85
2021/12/02 04:46:01;;;;;;;;;0.00;0.00;;;;;4.98;69.30;100283.06;5105708;27;45360;-86
2021/12/02 04:48:26;;;;;;;;;0.00;0.00;;;;;4.94;69.07;100283.00;5105258;27;45070;-85
2021/12/02 04:50:53;;;;;;;;;0.00;0.00;;;;;4.81;69.90;100266.34;5086730;27;45644;-85
2021/12/02 04:53:19;;;;;;;;;0.00;0.00;;;;;4.62;69.97;100249.56;5104141;27;46825;-85
2021/12/02 04:55:44;;;;;;;;;0.00;0.00;;;;;4.70;69.71;100260.06;5085322;27;45913;-85
2021/12/02 04:58:09;;;;;;;;;0.00;0.00;;;;;4.72;70.12;100289.34;5103760;27;45346;-85
2021/12/02 05:00:35;;;;;;;;;0.00;0.00;;;;;4.55;70.27;100274.31;5082135;28;45406;-85
2021/12/02 05:03:00;;;;;;;;;0.00;0.00;;;;;4.62;70.13;100289.97;5083945;28;45414;-84
2021/12/02 05:05:28;;;;;;;;;0.00;0.00;;;;;4.22;70.69;100212.47;5067997;28;45421;-86
2021/12/02 05:07:54;;;;;;;;;0.00;0.00;;;;;3.84;70.27;100174.53;5063566;28;45278;-86
2021/12/02 05:10:20;;;;;;;;;0.00;0.00;;;;;4.03;70.55;100191.34;5098026;27;45528;-87
2021/12/02 05:12:46;;;;;;;;;0.00;0.00;;;;;4.20;71.11;100240.75;5082430;28;46440;-87
2021/12/02 05:15:11;;;;;;;;;0.00;0.00;;;;;4.31;70.70;100256.50;5082465;28;45358;-86
2021/12/02 05:17:37;;;;;;;;;0.00;0.00;;;;;4.47;71.06;100288.69;5083148;28;45394;-86
2021/12/02 05:20:05;;;;;;;;;0.00;0.00;;;;;4.03;71.16;100220.56;5083002;28;45605;-86
2021/12/02 05:22:30;;;;;;;;;0.00;0.00;;;;;4.55;70.92;100315.56;5082721;28;46579;-87
2021/12/02 05:24:56;;;;;;;;;0.00;0.00;;;;;4.59;70.69;100311.34;5083554;28;44760;-87
2021/12/02 05:27:21;;;;;;;;;0.00;0.00;;;;;4.58;70.60;100319.94;5083581;28;45419;-85
2021/12/02 05:29:46;;;;;;;;;0.00;0.00;;;;;4.26;70.67;100276.13;5086087;28;45407;-85
2021/12/02 05:32:12;;;;;;;;;0.00;0.00;;;;;4.33;71.05;100293.50;5093855;27;46717;-85
2021/12/02 05:34:37;;;;;;;;;0.00;0.00;;;;;4.22;70.67;100271.72;5089619;27;45326;-85
2021/12/02 05:37:03;;;;;;;;;0.00;0.00;;;;;4.48;70.39;100307.63;5088419;27;45271;-85
2021/12/02 05:39:28;;;;;;;;;0.00;0.00;;;;;4.28;71.16;100284.75;5085082;27;45577;-86
2021/12/02 05:41:54;;;;;;;;;0.00;0.00;;;;;4.57;70.55;100346.56;5081924;28;45390;-85
2021/12/02 05:44:23;;;;;;;;;0.00;0.00;;;;;4.42;70.05;100319.53;5059927;28;45294;-85
2021/12/02 05:46:50;;;;;;;;;0.00;0.00;;;;;3.67;70.60;100195.53;5080684;28;45469;-85
2021/12/02 05:49:15;;;;;;;;;0.00;0.00;;;;;4.05;70.59;100254.09;5081391;28;45390;-84
2021/12/02 05:51:42;;;;;;;;;0.00;0.00;;;;;4.34;71.08;100305.53;5079590;28;48521;-86
2021/12/02 05:54:08;;;;;;;;;0.00;0.00;;;;;3.87;70.78;100228.69;5081178;28;45440;-85
2021/12/02 05:56:33;;;;;;;;;0.00;0.00;;;;;4.43;70.21;100326.41;5081198;28;45299;-83
2021/12/02 05:58:59;;;;;;;;;0.00;0.00;;;;;3.89;70.78;100239.94;5081145;28;45516;-83
2021/12/02 06:01:24;;;;;;;;;0.00;0.00;;;;;4.49;70.64;100332.56;5080354;28;46455;-85
2021/12/02 06:03:50;;;;;;;;;0.00;0.00;;;;;4.48;71.15;100338.56;5081948;28;45369;-85
2021/12/02 06:06:17;;;;;;;;;0.00;0.00;;;;;4.31;71.04;100313.19;5082098;28;45483;-84
2021/12/02 06:08:42;;;;;;;;;0.00;0.00;;;;;4.29;70.29;100322.59;5081069;28;45264;-83
2021/12/02 06:11:07;;;;;;;;;0.00;0.00;;;;;4.38;71.24;100351.19;5062090;28;47400;-82
2021/12/02 06:13:33;;;;;;;;;0.00;0.00;;;;;4.23;70.57;100325.84;5080740;28;45393;-82
2021/12/02 06:15:58;;;;;;;;;0.00;0.00;;;;;3.87;71.02;100272.47;5087980;27;45504;-82
2021/12/02 06:18:23;;;;;;;;;0.00;0.00;;;;;4.36;71.23;100360.59;5085781;27;45426;-82
2021/12/02 06:20:53;;;;;;;;;0.00;0.00;;;;;4.36;71.40;100347.72;5081349;28;45370;-82
2021/12/02 06:23:19;;;;;;;;;0.00;0.00;;;;;4.29;71.42;100343.22;5080625;28;45297;-83
2021/12/02 06:25:44;;;;;;;;;0.00;0.00;;;;;4.19;70.75;100318.88;5074480;28;45397;-83
2021/12/02 06:28:09;;;;;;;;;0.00;0.00;;;;;4.39;70.72;100352.06;5067931;28;45655;-85
2021/12/02 06:30:35;;;;;;;;;0.00;0.00;;;;;4.37;70.52;100338.25;5084324;28;45311;-83
2021/12/02 06:33:00;;;;;;;;;0.00;0.00;;;;;4.00;71.09;100273.69;5098326;27;45322;-83
2021/12/02 06:35:26;;;;;;;;;0.00;0.00;;;;;3.92;71.40;100264.03;5076383;27;45860;-87
2021/12/02 06:37:52;;;;;;;;;0.00;0.00;;;;;3.99;70.74;100289.97;5058258;28;45465;-83
2021/12/02 06:40:18;;;;;;;;;0.00;0.00;;;;;4.36;70.39;100365.75;5083559;28;46123;-83
2021/12/02 06:42:43;;;;;;;;;0.00;0.00;;;;;3.61;71.15;100239.13;5073475;28;45553;-86
2021/12/02 06:45:10;;;;;;;;;0.00;0.00;;;;;4.13;70.90;100327.31;5064474;28;45386;-86
2021/12/02 06:47:39;;;;;;;;;0.00;0.00;;;;;4.18;70.53;100335.16;5081042;27;45560;-84
2021/12/02 06:50:13;;;;;;;;;0.00;0.00;;;;;4.29;70.96;100381.88;5077458;27;45433;-82
2021/12/02 06:52:39;;;;;;;;;0.00;0.00;;;;;3.75;70.32;100320.22;5084057;28;45348;-83
2021/12/02 06:55:05;;;;;;;;;0.00;0.00;;;;;3.93;70.43;100363.66;5084212;28;45378;-82
2021/12/02 06:57:31;;;;;;;;;0.00;0.00;;;;;4.13;71.15;100393.41;5077293;28;45521;-82
2021/12/02 06:59:59;;;;;;;;;0.00;0.00;;;;;4.11;70.29;100403.69;5063520;28;45536;-81
2021/12/02 07:02:25;;;;;;;;;0.00;0.00;;;;;4.12;70.81;100405.44;5066122;28;45361;-81
2021/12/02 07:04:50;;;;;;;;;0.00;0.00;;;;;3.93;70.29;100379.09;5092752;28;45521;-83
2021/12/02 07:07:16;;;;;;;;;0.50;0.00;;;;;3.92;70.80;100394.53;5085738;28;45391;-82
2021/12/02 07:09:42;;;;;;;;;0.00;0.00;;;;;4.08;70.74;100429.38;5063614;28;45419;-82
2021/12/02 07:12:07;;;;;;;;;0.00;0.00;;;;;3.94;70.95;100395.44;5062954;28;45478;-83
2021/12/02 07:14:33;;;;;;;;;0.50;0.50;;;;;3.89;70.68;100394.44;5072775;28;45303;-82
2021/12/02 07:16:58;;;;;;;;;0.00;0.00;;;;;3.59;70.64;100351.47;5063190;28;45660;-83
2021/12/02 07:19:25;;;;;;;;;0.00;0.00;;;;;3.74;70.47;100377.69;5066214;28;45716;-82
2021/12/02 07:21:50;;;;;;;;;0.00;0.00;;;;;3.89;70.04;100415.06;5056812;28;45371;-82
2021/12/02 07:24:16;;;;;;;;;0.00;0.00;;;;;3.76;70.14;100385.44;5070266;28;45371;-84
2021/12/02 07:26:43;;;;;;;;;0.00;0.00;;;;;4.04;70.05;100435.22;5063399;28;45579;-85
2021/12/02 07:29:10;;;;;;;;;0.00;0.00;;;;;3.29;70.69;100329.97;5083047;28;45672;-85
2021/12/02 07:31:45;;;;;;;;;0.00;0.00;;;;;3.26;69.67;100333.31;5065036;27;45512;-85
2021/12/02 07:34:10;;;;;;;;;0.00;0.00;;;;;3.46;70.24;100361.38;5081652;28;45466;-85
2021/12/02 07:36:45;;;;;;;;;0.00;0.00;;;;;3.85;70.16;100438.94;5068318;28;45320;-84
2021/12/02 07:39:10;;;;;;;;;0.00;0.00;;;;;3.29;69.73;100338.56;5071919;27;47598;-85
2021/12/02 07:41:39;;;;;;;;;0.00;0.00;;;;;3.46;69.59;100353.66;5087215;27;45452;-85
2021/12/02 07:44:05;;;;;;;;;0.00;0.00;;;;;2.88;70.48;100248.09;5073093;28;45386;-86
2021/12/02 07:46:37;;;;;;;;;0.00;0.00;;;;;4.00;69.94;100429.13;5088985;28;45280;-85
2021/12/02 07:49:03;;;;;;;;;0.00;0.00;;;;;3.26;69.91;100315.31;5065599;28;48271;-86
2021/12/02 07:51:30;;;;;;;;;0.75;0.00;;;;;3.21;69.38;100292.84;5062945;27;45360;-85
2021/12/02 07:53:58;;;;;;;;;0.00;0.00;;;;;3.82;68.98;100380.50;5074074;27;45667;-84
2021/12/02 07:56:26;;;;;;;;;0.00;0.00;;;;;4.31;69.48;100436.88;5067498;27;45564;-83
2021/12/02 07:58:51;;;;;;;;;0.00;0.00;;;;;4.36;68.80;100449.91;5066779;28;45766;-83
2021/12/02 08:01:17;;;;;;;;;0.00;0.00;;;;;4.11;68.50;100408.84;5073311;27;45414;-80
2021/12/02 08:03:44;;;;;;;;;0.00;0.00;;;;;4.30;69.15;100437.72;5065614;27;45544;-80
2021/12/02 08:06:16;;;;;;;;;1.00;1.00;;;;;4.09;68.90;100392.47;5071841;27;45744;-81
2021/12/02 08:08:43;;;;;;;;;0.00;0.00;;;;;4.38;68.53;100443.13;5071564;28;45426;-82
2021/12/02 08:11:09;;;;;;;;;0.00;0.00;;;;;4.30;68.69;100423.16;5054156;28;45359;-82
2021/12/02 08:13:35;;;;;;;;;1.00;0.00;;;;;4.45;68.67;100455.34;5074522;27;45406;-82
2021/12/02 08:16:02;;;;;;;;;0.00;0.00;;;;;4.26;68.16;100434.16;5067941;28;45358;-82
2021/12/02 08:18:28;;;;;;;;;0.00;0.00;;;;;4.07;68.08;100396.69;5042567;28;47195;-82
2021/12/02 08:20:54;;;;;;;;;0.00;0.00;;;;;4.64;67.94;100471.34;5072718;28;45437;-82
2021/12/02 08:23:20;;;;;;;;;0.00;0.00;;;;;4.63;68.66;100475.63;5049392;28;45509;-82
2021/12/02 08:25:46;;;;;;;;;0.00;0.00;;;;;4.41;68.51;100445.78;5063086;28;45552;-83
2021/12/02 08:28:12;;;;;;;;;0.00;0.00;;;;;4.52;68.67;100466.69;5080847;27;45848;-82
2021/12/02 08:30:38;;;;;;;;;0.00;0.00;;;;;4.43;68.41;100452.72;5084593;28;45467;-82
2021/12/02 08:33:06;;;;;;;;;0.00;0.00;;;;;4.65;68.66;100496.28;5064916;27;45469;-82
2021/12/02 08:35:35;;;;;;;;;0.00;0.00;;;;;4.62;68.49;100501.38;5075689;27;45608;-82
2021/12/02 08:38:05;;;;;;;;;0.00;0.00;;;;;4.63;68.34;100500.53;5072780;27;46223;-82
2021/12/02 08:40:35;;;;;;;;;0.00;0.00;;;;;4.64;68.11;100508.31;5076942;27;45444;-83
2021/12/02 08:43:04;;;;;;;;;0.25;0.00;;;;;4.61;68.15;100504.78;5053187;28;45495;-81
2021/12/02 08:45:30;;;;;;;;;0.00;0.00;;;;;4.45;68.74;100496.59;5077262;28;45557;-82
2021/12/02 08:47:57;;;;;;;;;0.00;0.00;;;;;4.35;68.37;100466.22;5056701;28;47044;-83
2021/12/02 08:50:23;;;;;;;;;0.00;0.00;;;;;4.58;68.64;100513.31;5069237;28;45402;-82
2021/12/02 08:52:50;;;;;;;;;0.00;0.00;;;;;4.50;68.14;100495.00;5056195;28;45412;-82
2021/12/02 08:55:17;;;;;;;;;0.00;0.00;;;;;4.62;67.72;100503.97;5052264;28;45431;-82
2021/12/02 08:57:43;;;;;;;;;0.00;0.00;;;;;4.47;68.29;100496.66;5076417;27;45716;-82
2021/12/02 09:00:12;;;;;;;;;0.00;0.00;;;;;4.36;68.09;100465.38;5047059;28;45359;-81
2021/12/02 09:02:38;;;;;;;;;0.00;0.00;;;;;4.67;68.36;100513.56;5072503;27;45443;-84
2021/12/02 09:05:04;;;;;;;;;0.00;0.00;;;;;4.78;67.99;100518.19;5050926;28;45601;-82
2021/12/02 09:07:31;;;;;;;;;0.00;0.00;;;;;4.13;68.06;100407.19;5059371;28;47326;-84
2021/12/02 09:09:56;;;;;;;;;0.00;0.00;;;;;4.84;67.83;100478.78;5079054;27;45806;-83
2021/12/02 09:12:23;;;;;;;;;0.00;0.00;;;;;4.84;67.55;100479.63;5061610;28;45702;-81
2021/12/02 09:14:49;;;;;;;;;0.00;0.00;;;;;5.13;67.72;100532.88;5067931;28;45400;-81
2021/12/02 09:17:14;;;;;;;;;0.00;0.00;;;;;4.66;67.48;100446.50;5070331;28;46648;-81
2021/12/02 09:19:40;;;;;;;;;0.00;0.00;;;;;4.52;66.83;100421.19;5061359;27;45874;-81
2021/12/02 09:22:05;;;;;;;;;0.00;0.00;;;;;5.21;67.23;100526.25;5069518;27;45440;-81
2021/12/02 09:24:31;;;;;;;;;0.00;0.00;;;;;5.11;67.01;100501.03;5072987;28;45367;-82
2021/12/02 09:26:56;;;;;;;;;0.00;0.00;;;;;5.19;66.81;100533.94;5044662;28;48068;-81
2021/12/02 09:29:23;;;;;;;;;0.00;0.00;;;;;5.23;66.99;100545.22;5052662;28;45515;-81
2021/12/02 09:31:49;;;;;;;;;3.00;0.00;;;;;4.97;66.84;100498.03;5058970;27;46567;-82
2021/12/02 09:34:15;;;;;;;;;0.00;0.00;;;;;4.99;67.39;100499.84;5057075;28;45469;-82
2021/12/02 09:36:42;;;;;;;;;0.00;0.00;;;;;5.19;66.88;100531.38;5066956;28;45407;-81
2021/12/02 09:39:10;;;;;;;;;1.00;1.00;;;;;4.96;66.72;100502.31;5073153;27;45476;-80
2021/12/02 09:41:36;;;;;;;;;0.00;0.00;;;;;5.23;66.03;100555.53;5067782;28;45372;-82
2021/12/02 09:44:03;;;;;;;;;0.75;0.00;;;;;5.06;66.86;100529.28;5071770;27;45570;-81
2021/12/02 09:46:28;;;;;;;;;0.00;0.00;;;;;5.14;66.48;100530.34;5069607;28;48505;-80
2021/12/02 09:48:56;;;;;;;;;0.00;0.00;;;;;5.37;66.19;100563.69;5072749;28;45378;-79
2021/12/02 09:51:25;;;;;;;;;0.00;0.00;;;;;5.33;65.97;100554.09;5064990;28;45526;-79
2021/12/02 09:53:55;;;;;;;;;0.00;0.00;;;;;5.43;66.54;100570.72;5067801;27;45589;-79
2021/12/02 09:56:27;;;;;;;;;1.00;1.00;;;;;5.42;66.26;100566.38;5069286;28;46226;-80
2021/12/02 09:58:56;;;;;;;;;0.00;0.00;;;;;5.44;66.35;100538.88;5075526;28;46422;-81
2021/12/02 10:01:26;;;;;;;;;1.00;1.00;;;;;5.48;66.05;100545.88;5073106;28;45412;-83
2021/12/02 10:03:59;;;;;;;;;0.00;0.00;;;;;5.41;65.95;100537.09;5070904;28;45301;-83
2021/12/02 10:06:29;;;;;;;;;0.00;0.00;;;;;5.51;65.71;100556.28;5078271;27;47222;-81
2021/12/02 10:11:37;;;;;;;;;0.00;0.00;;;;;5.40;65.85;100522.47;5077598;27;45433;-81
2021/12/02 10:14:25;;;;;;;;;0.00;0.00;;;;;5.77;65.31;100563.84;5074246;28;45434;-82
2021/12/02 10:17:32;;;;;;;;;0.00;0.00;;;;;5.91;64.96;100584.84;5074752;27;45698;-81
2021/12/02 10:20:17;;;;;;;;;0.00;0.00;;;;;5.85;64.16;100586.44;5060838;28;45912;-82
2021/12/02 10:23:03;;;;;;;;;0.00;0.00;;;;;5.60;64.10;100573.72;5086256;27;45413;-81
2021/12/02 10:25:30;;;;;;;;;0.00;0.00;;;;;5.76;64.38;100587.06;5077610;28;45790;-81
2021/12/02 10:28:12;;;;;;;;;2.00;2.00;;;;;5.58;63.62;100562.50;5078913;27;45298;-81
2021/12/02 10:30:44;;;;;;;;;0.00;0.00;;;;;5.57;64.03;100543.53;5071246;28;45409;-81
2021/12/02 10:33:10;;;;;;;;;0.00;0.00;;;;;5.46;63.78;100534.66;5059845;28;45503;-81
2021/12/02 10:35:43;;;;;;;;;0.00;0.00;;;;;5.76;63.49;100572.41;5080850;28;45533;-81
2021/12/02 10:38:46;;;;;;;;;0.00;0.00;;;;;5.74;62.75;100563.78;5078774;27;45878;-81
2021/12/02 10:41:17;;;;;;;;;0.00;0.00;;;;;5.65;62.81;100545.44;5071133;27;45295;-81
2021/12/02 10:44:09;;;;;;;;;0.00;0.00;;;;;5.86;62.91;100577.81;5074360;28;45991;-80
2021/12/02 10:46:36;;;;;;;;;0.00;0.00;;;;;5.95;62.27;100571.16;5070909;28;45506;-81
2021/12/02 10:49:03;;;;;;;;;0.00;0.00;;;;;5.40;61.80;100459.59;5073678;28;46279;-82
2021/12/02 10:51:42;;;;;;;;;0.00;0.00;;;;;6.12;61.55;100573.34;5075234;27;45460;-81
2021/12/02 10:54:14;;;;;;;;;0.00;0.00;;;;;5.98;60.79;100548.84;5071019;28;45481;-83
2021/12/02 10:56:43;;;;;;;;;0.00;0.00;;;;;5.92;59.73;100562.50;5074442;28;45526;-81
2021/12/02 10:59:43;;;;;;;;;0.00;0.00;;;;;5.87;60.43;100564.94;5068212;28;45489;-81
2021/12/02 11:02:35;;;;;;;;;0.00;0.00;;;;;5.71;59.34;100535.28;5076325;27;45470;-81
2021/12/02 11:05:06;;;;;;;;;0.00;0.00;;;;;5.78;59.63;100521.69;5070705;28;45371;-84
2021/12/02 11:07:35;;;;;;;;;0.00;0.00;;;;;6.11;59.89;100550.91;5060109;28;45430;-84
2021/12/02 11:10:08;;;;;;;;;0.00;0.00;;;;;6.01;58.87;100533.41;5051522;28;46101;-81
2021/12/02 11:12:37;;;;;;;;;0.00;0.00;;;;;6.01;58.17;100560.13;5074334;27;45418;-80
2021/12/02 11:15:15;;;;;;;;;0.00;0.00;;;;;5.69;58.45;100521.44;5082284;27;45554;-82
2021/12/02 11:17:49;;;;;;;;;1.00;0.00;;;;;5.83;57.94;100557.97;5071312;27;45417;-84
2021/12/02 11:20:37;;;;;;;;;0.00;0.00;;;;;5.69;58.37;100545.56;5074662;28;45703;-83
2021/12/02 11:23:15;;;;;;;;;0.00;0.00;;;;;5.66;58.03;100560.97;5073058;28;45437;-84
2021/12/02 11:25:59;;;;;;;;;0.00;0.00;;;;;5.43;58.81;100526.81;5074456;27;45643;-83
2021/12/02 11:28:28;;;;;;;;;0.00;0.00;;;;;5.38;58.44;100511.19;5072587;28;45526;-84
2021/12/02 11:30:54;;;;;;;;;0.00;0.00;;;;;5.50;59.67;100538.16;5070125;28;45493;-85
2021/12/02 11:33:19;;;;;;;;;0.00;0.00;;;;;5.40;59.02;100534.47;5064736;28;45396;-85
2021/12/02 11:35:47;;;;;;;;;0.00;0.00;;;;;5.06;59.15;100514.66;5077242;27;45420;-86
2021/12/02 11:38:19;;;;;;;;;0.00;0.00;;;;;5.16;60.62;100564.84;5072259;28;45544;-85
2021/12/02 11:41:03;;;;;;;;;0.00;0.00;;;;;4.49;60.87;100479.50;5049912;28;47430;-84
2021/12/02 11:43:34;;;;;;;;;0.00;0.00;;;;;4.19;61.56;100450.28;5077896;28;45434;-84
2021/12/02 11:46:01;;;;;;;;;0.00;0.00;;;;;4.78;61.78;100555.13;5050446;27;45548;-86
2021/12/02 11:48:30;;;;;;;;;0.00;0.00;;;;;4.61;61.68;100530.56;5075897;27;45557;-83
2021/12/02 11:50:58;;;;;;;;;0.00;0.00;;;;;4.59;62.56;100547.69;5053472;28;45641;-87
2021/12/02 11:53:25;;;;;;;;;0.00;0.00;;;;;4.56;62.36;100518.41;5077785;28;45468;-85
2021/12/02 11:55:54;;;;;;;;;0.00;0.00;;;;;4.84;61.98;100543.25;5085067;27;45272;-86
2021/12/02 11:58:20;;;;;;;;;0.00;0.00;;;;;4.99;61.01;100540.25;5081625;27;45393;-85
2021/12/02 12:00:47;;;;;;;;;0.00;0.00;;;;;5.16;60.94;100541.59;5055882;28;47537;-87
2021/12/02 12:03:22;;;;;;;;;0.00;0.00;;;;;5.28;60.15;100538.50;5053767;28;45405;-85
2021/12/02 12:06:00;;;;;;;;;0.00;0.00;;;;;5.10;59.95;100478.59;5073774;28;45469;-85